Terminal Aerodrome Forecast
Issued by NWS

Home | Current Version | Previous Version | Text Only | Print | Product List | Glossary On
Versions: 1 2 3 4 5 6 7 8 9 10 11 12 13
000
FTUS44 KLZK 031130
TAFBPK
TAF
KBPK 031130Z 0312/0412 12006KT P6SM OVC130
     FM031900 09006KT P6SM -RA BKN050 OVC100
     FM032200 09007KT 5SM -RA BR BKN015
     FM040600 12005KT 2SM BR OVC007=

USA.gov is the U.S. government's official web portal to all federal, state and local government web resources and services.